Time;durP1;ratioP1;P1;durP2;ratioP2;P2;SDS_P1;SDS_P2;PMS_P1;PMS_P2;Temp;Humidity;BMP_temperature;BMP_pressure;BME280_temperature;BME280_humidity;BME280_pressure;Samples;Min_cycle;Max_cycle;Signal;HPM_P1;HPM_P2
2023/01/30 00:00:20;;;;;;;;;;;;;;;0.65;93.55;100971.16;5069797;28;19953;-68
2023/01/30 00:02:45;;;;;;;;;;;;;;;0.62;93.13;100978.94;5071870;28;19986;-68
2023/01/30 00:05:11;;;;;;;;;;;;;;;0.57;93.86;100973.59;5068991;28;19948;-68
2023/01/30 00:07:36;;;;;;;;;;;;;;;0.53;92.95;100966.53;5069692;28;19935;-67
2023/01/30 00:10:02;;;;;;;;;;;;;;;0.56;93.78;100979.66;5073875;28;19940;-69
2023/01/30 00:12:27;;;;;;;;;;;;;;;0.59;94.33;100978.88;5069899;28;19952;-68
2023/01/30 00:14:53;;;;;;;;;;;;;;;0.58;94.64;100985.84;5071791;28;19993;-69
2023/01/30 00:17:18;;;;;;;;;;;;;;;0.56;94.05;100970.97;5089654;28;20060;-68
2023/01/30 00:19:43;;;;;;;;;;;;;;;0.52;94.78;100954.28;5089649;28;19956;-68
2023/01/30 00:22:08;;;;;;;;;;;;;;;0.56;95.04;100956.13;5085086;28;20404;-69
2023/01/30 00:24:34;;;;;;;;;;;;;;;0.59;95.29;100966.69;5084846;28;19989;-69
2023/01/30 00:26:59;;;;;;;;;;;;;;;0.58;95.61;100964.00;5070924;28;19960;-69
2023/01/30 00:29:24;;;;;;;;;;;;;;;0.63;95.51;100980.69;5088353;28;19928;-68
2023/01/30 00:31:49;;;;;;;;;;;;;;;0.65;95.80;100986.84;5088983;28;19933;-68
2023/01/30 00:34:15;;;;;;;;;;;;;;;0.68;95.53;100989.53;5079175;28;19948;-68
2023/01/30 00:36:40;;;;;;;;;;;;;;;0.69;94.83;100993.94;5067897;28;19934;-69
2023/01/30 00:39:05;;;;;;;;;;;;;;;0.71;94.89;101008.81;5071843;28;19947;-69
2023/01/30 00:47:04;;;;;;;;;;;;;;;0.75;95.34;101010.66;5088824;28;19954;-70
2023/01/30 00:47:07;;;;;;;;;;;;;;;0.83;95.21;101021.28;5093040;28;19938;-67
2023/01/30 00:49:32;;;;;;;;;;;;;;;0.90;94.97;101039.81;5075126;28;20324;-68
2023/01/30 00:51:58;;;;;;;;;;;;;;;0.94;94.93;101066.97;5073179;28;19991;-68
2023/01/30 00:54:23;;;;;;;;;;;;;;;0.93;94.51;101057.31;5077920;28;19941;-68
2023/01/30 00:56:48;;;;;;;;;;;;;;;0.94;94.45;101059.09;5071866;28;20403;-68
2023/01/30 00:59:14;;;;;;;;;;;;;;;0.93;93.96;101066.06;5074684;28;19940;-68
2023/01/30 01:01:39;;;;;;;;;;;;;;;0.90;93.92;101072.97;5071913;28;20415;-68
2023/01/30 01:04:05;;;;;;;;;;;;;;;0.89;94.08;101081.69;5072706;28;19984;-68
2023/01/30 01:06:30;;;;;;;;;;;;;;;0.78;94.06;101083.16;5074172;28;19984;-68
2023/01/30 01:08:56;;;;;;;;;;;;;;;0.77;94.70;101086.63;5073054;28;20437;-68
2023/01/30 01:11:24;;;;;;;;;;;;;;;0.75;94.90;101083.06;5074780;28;19971;-68
2023/01/30 01:13:53;;;;;;;;;;;;;;;0.70;94.37;101084.69;5072831;28;19947;-69
2023/01/30 01:16:18;;;;;;;;;;;;;;;0.65;94.86;101081.09;5071535;28;19969;-68
2023/01/30 01:18:43;;;;;;;;;;;;;;;0.64;95.64;101079.34;5073962;28;19946;-68
2023/01/30 01:21:09;;;;;;;;;;;;;;;0.63;96.14;101072.31;5071038;28;19958;-68
2023/01/30 01:23:34;;;;;;;;;;;;;;;0.69;95.96;101080.31;5088535;28;19950;-69
2023/01/30 01:26:02;;;;;;;;;;;;;;;0.72;96.25;101083.91;5060660;28;19934;-68
2023/01/30 01:28:27;;;;;;;;;;;;;;;0.77;97.05;101081.38;5086441;28;20453;-68
2023/01/30 01:30:53;;;;;;;;;;;;;;;0.85;96.73;101095.53;5092254;28;19982;-68
2023/01/30 01:33:19;;;;;;;;;;;;;;;0.88;97.62;101099.13;5088258;28;19996;-68
2023/01/30 01:35:46;;;;;;;;;;;;;;;0.89;96.40;101092.16;5074753;28;19941;-68
2023/01/30 01:38:11;;;;;;;;;;;;;;;0.86;96.74;101076.34;5071650;28;20017;-69
2023/01/30 01:43:21;;;;;;;;;;;;;;;0.90;97.30;101078.19;5072285;28;20321;-67
2023/01/30 01:45:48;;;;;;;;;;;;;;;0.94;97.74;101090.53;5081346;28;19936;-67
2023/01/30 01:48:23;;;;;;;;;;;;;;;0.95;97.88;101071.34;5092324;28;20573;-68
2023/01/30 01:50:52;;;;;;;;;;;;;;;0.96;97.37;101049.53;5070354;28;19979;-68
2023/01/30 01:53:20;;;;;;;;;;;;;;;0.92;97.34;101050.31;5050987;28;20420;-68
2023/01/30 01:55:47;;;;;;;;;;;;;;;0.88;97.83;101054.59;5084736;28;20307;-66
2023/01/30 01:58:16;;;;;;;;;;;;;;;0.86;97.97;101056.28;5087392;28;20384;-68
2023/01/30 02:00:41;;;;;;;;;;;;;;;0.92;97.26;101038.09;5088633;28;19967;-64
2023/01/30 02:03:11;;;;;;;;;;;;;;;0.90;97.24;101012.72;5073209;28;19941;-64
2023/01/30 02:05:39;;;;;;;;;;;;;;;0.93;97.89;100997.06;5071131;28;19942;-64
2023/01/30 02:08:07;;;;;;;;;;;;;;;0.99;97.27;101000.72;5071794;28;19931;-64
2023/01/30 02:10:35;;;;;;;;;;;;;;;1.06;97.06;101020.94;5073667;28;20332;-64
2023/01/30 02:13:00;;;;;;;;;;;;;;;1.06;95.87;101035.78;5071572;28;20325;-64
2023/01/30 02:15:26;;;;;;;;;;;;;;;1.02;95.59;101031.34;5078998;28;19954;-65
2023/01/30 02:17:51;;;;;;;;;;;;;;;1.05;95.76;101027.06;4824321;28;20364;-64
2023/01/30 02:20:26;;;;;;;;;;;;;;;1.13;95.08;101020.25;5052514;28;19996;-64
2023/01/30 02:23:09;;;;;;;;;;;;;;;1.09;95.42;101004.41;5088319;28;20011;-64
2023/01/30 02:25:37;;;;;;;;;;;;;;;1.15;94.62;101002.78;5065787;28;19978;-63
2023/01/30 02:28:13;;;;;;;;;;;;;;;1.08;94.39;101000.03;5067807;28;19940;-64
2023/01/30 02:30:59;;;;;;;;;;;;;;;0.95;94.70;100992.75;5072765;28;19945;-64
2023/01/30 02:33:59;;;;;;;;;;;;;;;0.85;95.95;100965.50;5071453;28;19932;-64
2023/01/30 02:36:37;;;;;;;;;;;;;;;0.88;95.62;100972.53;4970455;28;19945;-64
2023/01/30 02:39:09;;;;;;;;;;;;;;;0.85;96.18;100972.47;5041100;28;19949;-63
2023/01/30 02:41:34;;;;;;;;;;;;;;;0.92;95.73;100967.38;5070707;28;20411;-63
2023/01/30 02:44:10;;;;;;;;;;;;;;;0.91;96.02;100949.03;5091091;28;19937;-63
2023/01/30 02:46:35;;;;;;;;;;;;;;;0.89;95.99;100946.38;5087292;28;19944;-64
2023/01/30 02:49:03;;;;;;;;;;;;;;;0.95;96.89;100919.44;5090666;28;19938;-64
2023/01/30 02:51:29;;;;;;;;;;;;;;;1.08;96.57;100911.84;5072471;28;20701;-64
2023/01/30 02:53:55;;;;;;;;;;;;;;;1.07;95.26;100909.22;5086622;28;19934;-64
2023/01/30 02:56:20;;;;;;;;;;;;;;;1.14;95.92;100900.59;5073985;28;19940;-63
2023/01/30 02:58:52;;;;;;;;;;;;;;;1.12;95.73;100899.72;5069726;28;19937;-63
2023/01/30 03:01:17;;;;;;;;;;;;;;;1.08;96.12;100905.72;5068166;28;19972;-64
2023/01/30 03:04:01;;;;;;;;;;;;;;;1.11;94.88;100890.97;5062714;28;20265;-64
2023/01/30 03:06:46;;;;;;;;;;;;;;;1.03;95.81;100847.13;5084254;28;19938;-63
2023/01/30 03:09:11;;;;;;;;;;;;;;;0.97;95.71;100847.88;5090960;28;19973;-63
2023/01/30 03:11:56;;;;;;;;;;;;;;;1.10;96.20;100862.13;5086223;28;20492;-64
2023/01/30 03:14:40;;;;;;;;;;;;;;;1.09;96.27;100842.00;5090801;28;19932;-64
2023/01/30 03:17:06;;;;;;;;;;;;;;;1.07;96.41;100821.00;5085932;28;19965;-64
2023/01/30 03:19:32;;;;;;;;;;;;;;;1.15;96.84;100814.16;5071749;28;20420;-64
2023/01/30 03:21:57;;;;;;;;;;;;;;;1.17;95.36;100806.38;5079374;28;20076;-64
2023/01/30 03:24:22;;;;;;;;;;;;;;;1.23;95.54;100806.47;5070944;28;20396;-63
2023/01/30 03:26:53;;;;;;;;;;;;;;;1.33;95.80;100813.63;5051815;28;20075;-63
2023/01/30 03:29:18;;;;;;;;;;;;;;;1.45;95.31;100840.00;5075683;28;20022;-64
2023/01/30 03:31:43;;;;;;;;;;;;;;;1.49;94.10;100847.09;5090082;28;19938;-64
2023/01/30 03:34:09;;;;;;;;;;;;;;;1.55;93.42;100857.66;5085998;28;19936;-64
2023/01/30 03:36:34;;;;;;;;;;;;;;;1.62;92.58;100861.28;5080619;28;19938;-64
2023/01/30 03:38:59;;;;;;;;;;;;;;;1.71;92.35;100854.47;5066828;28;20346;-63
2023/01/30 03:41:24;;;;;;;;;;;;;;;1.72;91.95;100856.22;5071105;28;20043;-65
2023/01/30 03:43:50;;;;;;;;;;;;;;;1.78;92.12;100853.69;5070386;28;19932;-64
2023/01/30 03:46:15;;;;;;;;;;;;;;;1.70;91.93;100860.53;5069722;28;19938;-64
2023/01/30 03:48:40;;;;;;;;;;;;;;;1.67;92.24;100865.75;5072563;28;19944;-63
2023/01/30 03:51:05;;;;;;;;;;;;;;;1.69;92.11;100861.41;5070976;28;20501;-63
2023/01/30 03:53:31;;;;;;;;;;;;;;;1.69;91.33;100865.78;5069325;28;19955;-63
2023/01/30 03:55:56;;;;;;;;;;;;;;;1.70;92.18;100857.91;5070994;28;20321;-63
2023/01/30 03:58:21;;;;;;;;;;;;;;;1.72;91.21;100861.47;5076311;28;19958;-64
2023/01/30 04:00:46;;;;;;;;;;;;;;;1.73;91.55;100842.22;5050903;28;19952;-63
2023/01/30 04:03:12;;;;;;;;;;;;;;;1.79;91.99;100837.09;5078351;28;19979;-64
2023/01/30 04:05:37;;;;;;;;;;;;;;;1.77;90.85;100836.19;5050464;28;19936;-64
2023/01/30 04:08:02;;;;;;;;;;;;;;;1.78;90.57;100829.22;5069611;28;19929;-63
2023/01/30 04:10:27;;;;;;;;;;;;;;;1.83;90.94;100830.19;5050971;28;19937;-64
2023/01/30 04:12:53;;;;;;;;;;;;;;;1.94;90.68;100825.97;5071948;28;20310;-63
2023/01/30 04:15:18;;;;;;;;;;;;;;;1.94;89.70;100832.09;5068755;28;19928;-63
2023/01/30 04:17:43;;;;;;;;;;;;;;;2.02;89.19;100840.97;5069259;28;19966;-63
2023/01/30 04:20:09;;;;;;;;;;;;;;;2.10;88.79;100841.94;5069165;28;19981;-64
2023/01/30 04:22:35;;;;;;;;;;;;;;;2.16;88.64;100849.91;5089671;28;20048;-63
2023/01/30 04:25:00;;;;;;;;;;;;;;;2.29;87.95;100845.72;5081136;28;19945;-64
2023/01/30 04:27:25;;;;;;;;;;;;;;;2.20;87.16;100843.84;5084153;28;20422;-64
2023/01/30 04:29:50;;;;;;;;;;;;;;;2.25;87.75;100849.16;5090099;28;19933;-64
2023/01/30 04:32:16;;;;;;;;;;;;;;;2.34;87.89;100859.78;5084966;28;20466;-64
2023/01/30 04:34:42;;;;;;;;;;;;;;;2.37;87.01;100859.81;5062583;28;19982;-64
2023/01/30 04:37:08;;;;;;;;;;;;;;;2.39;86.91;100866.84;5050608;28;20471;-64
2023/01/30 04:39:33;;;;;;;;;;;;;;;2.39;87.40;100876.44;5085895;28;19932;-63
2023/01/30 04:41:58;;;;;;;;;;;;;;;2.31;87.10;100878.09;5089480;28;19962;-63
2023/01/30 04:44:23;;;;;;;;;;;;;;;2.34;87.80;100870.28;5085200;28;19935;-63
2023/01/30 04:46:49;;;;;;;;;;;;;;;2.37;87.03;100873.81;5070720;28;19981;-63
2023/01/30 04:49:14;;;;;;;;;;;;;;;2.41;87.29;100873.00;5089715;28;19973;-64
2023/01/30 04:51:39;;;;;;;;;;;;;;;2.42;87.40;100869.50;5085009;28;19939;-63
2023/01/30 04:54:05;;;;;;;;;;;;;;;2.43;86.61;100860.78;5070331;28;20376;-63
2023/01/30 04:56:30;;;;;;;;;;;;;;;2.47;86.86;100846.81;5072500;28;19942;-64
2023/01/30 04:58:56;;;;;;;;;;;;;;;2.46;87.12;100860.81;5089357;28;19940;-64
2023/01/30 05:01:28;;;;;;;;;;;;;;;2.50;86.58;100867.84;5084646;28;19998;-64
2023/01/30 05:03:54;;;;;;;;;;;;;;;2.57;86.92;100867.09;5058275;28;19944;-63
2023/01/30 05:06:20;;;;;;;;;;;;;;;2.55;85.60;100858.28;5068824;28;19932;-64
2023/01/30 05:08:49;;;;;;;;;;;;;;;2.58;86.24;100849.59;5069010;28;20822;-64
2023/01/30 05:11:14;;;;;;;;;;;;;;;2.62;85.48;100847.03;5051117;28;19973;-64
2023/01/30 05:13:40;;;;;;;;;;;;;;;2.63;86.13;100833.03;5086532;28;19991;-64
2023/01/30 05:16:05;;;;;;;;;;;;;;;2.62;86.27;100843.50;5089046;28;19929;-64
2023/01/30 05:18:30;;;;;;;;;;;;;;;2.63;85.28;100843.56;5089151;28;20427;-63
2023/01/30 05:21:05;;;;;;;;;;;;;;;2.66;85.11;100833.06;5084767;28;20299;-64
2023/01/30 05:23:31;;;;;;;;;;;;;;;2.60;84.74;100827.72;5088395;28;19973;-64
2023/01/30 05:25:56;;;;;;;;;;;;;;;2.66;85.13;100833.06;5068761;28;20051;-65
2023/01/30 05:28:22;;;;;;;;;;;;;;;2.68;84.86;100836.56;5071108;28;19930;-64
2023/01/30 05:30:47;;;;;;;;;;;;;;;2.73;85.23;100824.38;5053184;28;20011;-64
2023/01/30 05:33:12;;;;;;;;;;;;;;;2.76;84.87;100833.16;5073886;28;20032;-64
2023/01/30 05:35:37;;;;;;;;;;;;;;;2.67;84.76;100850.59;5071971;28;20369;-64
2023/01/30 05:38:03;;;;;;;;;;;;;;;2.77;83.89;100845.47;5072625;28;19931;-64
2023/01/30 05:40:28;;;;;;;;;;;;;;;2.67;84.87;100841.81;5074155;28;19986;-64
2023/01/30 05:42:53;;;;;;;;;;;;;;;2.67;84.62;100840.06;5074721;28;20308;-64
2023/01/30 05:45:18;;;;;;;;;;;;;;;2.80;84.26;100850.75;5074320;28;20034;-64
2023/01/30 05:47:44;;;;;;;;;;;;;;;2.80;84.14;100845.50;5073879;28;20571;-64
2023/01/30 05:50:09;;;;;;;;;;;;;;;2.78;84.31;100839.31;5071911;28;19934;-64
2023/01/30 05:52:35;;;;;;;;;;;;;;;2.81;84.89;100829.75;5072184;28;19935;-64
2023/01/30 05:55:00;;;;;;;;;;;;;;;2.70;85.19;100823.50;5071695;28;19937;-65
2023/01/30 05:57:25;;;;;;;;;;;;;;;2.77;85.34;100820.06;5085302;28;19939;-64
2023/01/30 05:59:50;;;;;;;;;;;;;;;2.79;84.95;100818.31;5091922;28;19928;-64
2023/01/30 06:02:16;;;;;;;;;;;;;;;2.69;85.63;100811.22;5082127;28;20082;-64
2023/01/30 06:04:41;;;;;;;;;;;;;;;2.76;86.29;100817.41;5066921;28;19939;-64
2023/01/30 06:07:06;;;;;;;;;;;;;;;2.77;86.58;100820.06;5075239;28;19992;-64
2023/01/30 06:09:31;;;;;;;;;;;;;;;2.75;86.51;100813.03;5091838;28;19934;-64
2023/01/30 06:11:57;;;;;;;;;;;;;;;2.70;86.59;100802.47;5091792;28;19950;-64
2023/01/30 06:14:22;;;;;;;;;;;;;;;2.66;86.56;100801.56;5087398;28;20004;-64
2023/01/30 06:16:47;;;;;;;;;;;;;;;2.72;86.96;100799.00;5091405;28;19986;-65
2023/01/30 06:19:12;;;;;;;;;;;;;;;2.70;86.31;100808.59;5085518;28;20308;-65
2023/01/30 06:21:38;;;;;;;;;;;;;;;2.72;86.65;100797.25;5069772;28;19956;-64
2023/01/30 06:24:03;;;;;;;;;;;;;;;2.63;87.45;100806.78;5071148;28;20446;-64
2023/01/30 06:26:28;;;;;;;;;;;;;;;2.65;86.91;100799.78;5071748;28;19935;-65
2023/01/30 06:28:54;;;;;;;;;;;;;;;2.69;87.18;100812.09;5090197;28;20069;-64
2023/01/30 06:31:19;;;;;;;;;;;;;;;2.62;87.29;100812.88;5091409;28;19929;-65
2023/01/30 06:33:44;;;;;;;;;;;;;;;2.68;86.87;100805.06;5086879;28;19977;-65
2023/01/30 06:36:09;;;;;;;;;;;;;;;2.70;87.10;100800.72;5070678;28;20465;-64
2023/01/30 06:38:35;;;;;;;;;;;;;;;2.63;87.70;100780.53;5070979;28;19938;-65
2023/01/30 06:41:00;;;;;;;;;;;;;;;2.64;87.95;100781.38;5090319;28;19958;-64
2023/01/30 06:43:25;;;;;;;;;;;;;;;2.53;87.42;100773.41;5091635;28;20434;-65
2023/01/30 06:45:51;;;;;;;;;;;;;;;2.58;88.04;100779.59;5091290;28;19963;-64
2023/01/30 06:48:16;;;;;;;;;;;;;;;2.54;86.76;100774.25;5085149;28;19932;-65
2023/01/30 06:50:41;;;;;;;;;;;;;;;2.58;87.00;100776.97;5070711;28;19961;-64
2023/01/30 06:53:07;;;;;;;;;;;;;;;2.68;86.53;100788.44;5052698;28;19931;-65
2023/01/30 06:55:34;;;;;;;;;;;;;;;2.72;86.05;100789.38;5070935;28;20467;-65
2023/01/30 06:58:04;;;;;;;;;;;;;;;2.66;86.96;100787.53;5080199;28;19982;-64
2023/01/30 07:00:30;;;;;;;;;;;;;;;2.66;86.14;100770.06;5082839;28;19954;-65
2023/01/30 07:02:55;;;;;;;;;;;;;;;2.64;86.35;100782.28;5033644;28;20285;-65
2023/01/30 07:05:20;;;;;;;;;;;;;;;2.71;87.22;100783.22;5068929;28;19974;-65
2023/01/30 07:07:46;;;;;;;;;;;;;;;2.75;87.11;100789.41;5081411;28;19935;-65
2023/01/30 07:10:11;;;;;;;;;;;;;;;2.75;86.82;100815.66;5089955;28;20037;-64
2023/01/30 07:12:36;;;;;;;;;;;;;;;2.78;86.81;100820.94;5085285;28;19959;-65
2023/01/30 07:15:02;;;;;;;;;;;;;;;2.76;86.70;100817.41;5089498;28;20032;-65
2023/01/30 07:17:27;;;;;;;;;;;;;;;2.71;86.67;100820.00;5086043;28;20100;-65
2023/01/30 07:19:52;;;;;;;;;;;;;;;2.78;86.00;100818.31;5088425;28;19944;-65
2023/01/30 07:22:18;;;;;;;;;;;;;;;2.82;86.03;100822.75;5090332;28;20033;-65
2023/01/30 07:24:43;;;;;;;;;;;;;;;2.88;86.44;100833.31;5080091;28;19941;-65
2023/01/30 07:27:09;;;;;;;;;;;;;;;2.84;86.87;100831.50;5069799;28;20375;-65
2023/01/30 07:29:35;;;;;;;;;;;;;;;2.87;86.91;100831.56;5052293;28;19939;-65
2023/01/30 07:32:00;;;;;;;;;;;;;;;2.97;85.87;100826.41;5087433;28;19938;-66
2023/01/30 07:34:25;;;;;;;;;;;;;;;2.87;86.34;100824.53;5081847;28;19934;-66
2023/01/30 07:36:51;;;;;;;;;;;;;;;2.91;86.47;100838.59;5069879;28;20306;-66
2023/01/30 07:39:16;;;;;;;;;;;;;;;2.90;85.49;100839.47;5080449;28;19971;-66
2023/01/30 07:41:41;;;;;;;;;;;;;;;2.94;85.59;100843.88;5086750;28;19960;-66
2023/01/30 07:44:06;;;;;;;;;;;;;;;3.03;84.89;100839.59;5083646;28;19960;-66
2023/01/30 07:46:33;;;;;;;;;;;;;;;2.98;85.29;100840.44;5069719;28;19936;-66
2023/01/30 07:49:02;;;;;;;;;;;;;;;2.99;85.02;100842.19;5070036;28;19957;-66
2023/01/30 07:51:27;;;;;;;;;;;;;;;3.01;84.74;100837.84;5070477;28;19945;-67
2023/01/30 07:53:52;;;;;;;;;;;;;;;3.02;85.31;100831.72;5069862;28;20313;-67
2023/01/30 07:56:20;;;;;;;;;;;;;;;3.05;84.93;100826.50;5075045;28;19978;-67
2023/01/30 07:58:45;;;;;;;;;;;;;;;2.99;84.73;100829.06;5072363;28;19981;-67
2023/01/30 08:01:10;;;;;;;;;;;;;;;3.03;85.13;100826.47;5059695;28;20501;-67
2023/01/30 08:03:35;;;;;;;;;;;;;;;3.05;86.32;100818.63;5080190;28;19930;-67
2023/01/30 08:06:01;;;;;;;;;;;;;;;3.03;86.45;100830.88;5069205;28;19982;-66
2023/01/30 08:08:26;;;;;;;;;;;;;;;3.00;85.97;100829.06;5073525;28;20279;-67
2023/01/30 08:10:51;;;;;;;;;;;;;;;3.05;86.55;100843.13;5051809;28;19983;-67
2023/01/30 08:13:17;;;;;;;;;;;;;;;3.06;86.36;100849.28;5069091;28;19956;-67
2023/01/30 08:15:42;;;;;;;;;;;;;;;3.14;86.43;100852.88;5087023;28;19945;-67
2023/01/30 08:18:07;;;;;;;;;;;;;;;3.06;86.78;100854.53;5084112;28;20057;-67
2023/01/30 08:20:32;;;;;;;;;;;;;;;3.05;87.62;100844.91;5079583;28;19954;-67
2023/01/30 08:22:58;;;;;;;;;;;;;;;3.07;87.07;100848.41;5068681;28;19973;-67
2023/01/30 08:25:24;;;;;;;;;;;;;;;3.17;86.74;100845.00;5068639;28;19970;-67
2023/01/30 08:27:50;;;;;;;;;;;;;;;3.10;86.80;100845.84;5086665;28;20417;-67
2023/01/30 08:30:15;;;;;;;;;;;;;;;3.10;87.10;100841.44;5088572;28;19930;-67
2023/01/30 08:32:40;;;;;;;;;;;;;;;3.19;86.35;100862.56;5079400;28;19945;-67
2023/01/30 08:35:06;;;;;;;;;;;;;;;3.20;86.56;100863.44;5076372;28;19932;-66
2023/01/30 08:37:31;;;;;;;;;;;;;;;3.18;86.80;100859.94;5069117;28;20018;-67
2023/01/30 08:39:57;;;;;;;;;;;;;;;3.17;86.99;100858.16;5088489;28;19940;-66
2023/01/30 08:42:22;;;;;;;;;;;;;;;3.28;87.02;100856.53;5090066;28;19940;-66
2023/01/30 08:44:47;;;;;;;;;;;;;;;3.31;86.49;100856.56;5077051;28;20410;-66
2023/01/30 08:47:12;;;;;;;;;;;;;;;3.32;87.38;100847.78;5069250;28;19926;-66
2023/01/30 08:49:38;;;;;;;;;;;;;;;3.33;87.35;100844.28;5072206;28;19940;-66
2023/01/30 08:52:03;;;;;;;;;;;;;;;3.36;86.99;100841.72;5087237;28;20345;-67
2023/01/30 08:54:28;;;;;;;;;;;;;;;3.40;87.45;100827.72;5085840;28;19935;-66
2023/01/30 08:56:53;;;;;;;;;;;;;;;3.45;87.64;100833.91;5079604;28;20304;-67
2023/01/30 08:59:19;;;;;;;;;;;;;;;3.45;87.52;100844.41;5089108;28;19928;-66
2023/01/30 09:01:44;;;;;;;;;;;;;;;3.41;87.18;100832.13;5074177;28;19957;-67
2023/01/30 09:04:09;;;;;;;;;;;;;;;3.46;87.04;100840.94;5071799;28;19934;-67
2023/01/30 09:06:34;;;;;;;;;;;;;;;3.48;86.36;100816.41;5072669;28;20019;-66
2023/01/30 09:09:00;;;;;;;;;;;;;;;3.50;85.97;100821.66;5072859;28;20025;-67
2023/01/30 09:11:25;;;;;;;;;;;;;;;3.48;86.06;100824.28;5072419;28;19955;-67
2023/01/30 09:13:50;;;;;;;;;;;;;;;3.47;85.76;100827.81;5075056;28;19959;-67
2023/01/30 09:16:16;;;;;;;;;;;;;;;3.55;85.29;100833.09;5070271;28;19929;-67
2023/01/30 09:18:41;;;;;;;;;;;;;;;3.57;84.98;100829.63;5055374;28;19937;-67
2023/01/30 09:21:08;;;;;;;;;;;;;;;3.55;84.94;100819.97;5092369;28;19962;-67
2023/01/30 09:23:33;;;;;;;;;;;;;;;3.64;84.89;100820.06;5074879;28;20028;-67
2023/01/30 09:25:59;;;;;;;;;;;;;;;3.59;84.99;100819.13;5087491;28;20025;-67
2023/01/30 09:28:24;;;;;;;;;;;;;;;3.54;85.03;100819.06;5088417;28;19935;-67
2023/01/30 09:30:49;;;;;;;;;;;;;;;3.62;85.10;100814.78;5092844;28;19937;-67
2023/01/30 09:33:19;;;;;;;;;;;;;;;3.60;84.48;100813.00;5085262;28;20395;-67
2023/01/30 09:35:45;;;;;;;;;;;;;;;3.69;84.69;100807.81;5074404;28;19940;-67
2023/01/30 09:38:11;;;;;;;;;;;;;;;3.76;84.71;100814.84;5056293;28;20045;-67
2023/01/30 09:40:39;;;;;;;;;;;;;;;3.79;84.46;100814.88;5089616;28;20024;-67
2023/01/30 09:43:16;;;;;;;;;;;;;;;3.84;84.54;100807.91;5092714;28;20459;-67
2023/01/30 09:45:47;;;;;;;;;;;;;;;3.86;85.19;100821.94;5064879;28;19950;-67
2023/01/30 09:48:15;;;;;;;;;;;;;;;3.99;84.95;100821.16;5092465;28;20047;-67
2023/01/30 09:50:43;;;;;;;;;;;;;;;4.04;84.98;100822.06;5069697;28;19940;-67
2023/01/30 09:53:17;;;;;;;;;;;;;;;3.93;85.40;100815.88;5074165;28;19988;-67
2023/01/30 09:55:45;;;;;;;;;;;;;;;3.92;86.62;100822.03;5078763;28;20464;-67
2023/01/30 09:58:30;;;;;;;;;;;;;;;3.94;87.65;100815.00;5073872;28;19935;-67
2023/01/30 10:01:02;;;;;;;;;;;;;;;3.93;88.37;100787.81;5080401;28;19956;-67
2023/01/30 10:03:37;;;;;;;;;;;;;;;3.90;89.16;100776.38;5081770;28;20063;-67
2023/01/30 10:06:09;;;;;;;;;;;;;;;3.89;90.08;100790.38;5071295;28;19935;-67
2023/01/30 10:08:41;;;;;;;;;;;;;;;3.85;90.55;100794.78;5080054;28;20107;-67
2023/01/30 10:11:06;;;;;;;;;;;;;;;3.74;90.58;100795.56;5085763;28;20036;-67
2023/01/30 10:13:43;;;;;;;;;;;;;;;3.80;91.12;100798.25;5091219;28;19946;-67
2023/01/30 10:16:18;;;;;;;;;;;;;;;3.84;91.08;100782.47;5084639;28;20498;-67
2023/01/30 10:18:52;;;;;;;;;;;;;;;3.86;91.23;100793.00;5071652;28;19939;-67
2023/01/30 10:21:36;;;;;;;;;;;;;;;3.79;91.52;100797.34;5070830;28;19953;-67
2023/01/30 10:24:08;;;;;;;;;;;;;;;3.74;92.36;100787.69;5091019;28;20038;-67
2023/01/30 10:26:34;;;;;;;;;;;;;;;3.79;92.38;100788.56;5071521;28;19932;-67
2023/01/30 10:29:04;;;;;;;;;;;;;;;3.77;92.65;100780.66;5073363;28;19941;-67
2023/01/30 10:31:34;;;;;;;;;;;;;;;3.79;93.27;100772.78;5071246;28;19968;-66
2023/01/30 10:34:10;;;;;;;;;;;;;;;3.70;93.67;100775.38;5056988;28;20377;-67
2023/01/30 10:36:41;;;;;;;;;;;;;;;3.72;93.99;100778.91;5073069;28;20420;-67
2023/01/30 10:39:20;;;;;;;;;;;;;;;3.74;94.41;100780.66;5081635;28;19972;-66
2023/01/30 10:41:55;;;;;;;;;;;;;;;3.64;95.05;100772.69;5071932;28;19954;-66
2023/01/30 10:44:21;;;;;;;;;;;;;;;3.66;95.71;100776.19;5072453;28;20702;-66
2023/01/30 10:47:00;;;;;;;;;;;;;;;3.69;96.10;100766.59;5069603;28;19953;-67
2023/01/30 10:49:35;;;;;;;;;;;;;;;3.72;95.94;100771.00;5056168;28;19942;-67
2023/01/30 10:52:04;;;;;;;;;;;;;;;3.73;96.39;100762.22;5070535;28;19945;-67
2023/01/30 10:54:55;;;;;;;;;;;;;;;3.65;97.11;100751.66;5085970;28;19935;-66
2023/01/30 10:57:39;;;;;;;;;;;;;;;3.64;97.96;100746.41;5011079;28;20472;-66
2023/01/30 11:00:15;;;;;;;;;;;;;;;3.64;98.08;100743.78;5049814;28;19937;-66
2023/01/30 11:02:47;;;;;;;;;;;;;;;3.66;98.37;100744.63;5071224;28;20387;-66
2023/01/30 11:05:17;;;;;;;;;;;;;;;3.65;98.23;100740.25;5050371;28;20638;-67
2023/01/30 11:07:44;;;;;;;;;;;;;;;3.61;98.39;100730.56;5072717;28;19939;-67
2023/01/30 11:10:17;;;;;;;;;;;;;;;3.66;98.88;100723.59;5090506;28;19933;-66
2023/01/30 11:12:42;;;;;;;;;;;;;;;3.68;98.68;100711.34;5073387;28;20062;-67
2023/01/30 11:15:08;;;;;;;;;;;;;;;3.76;98.61;100718.41;5090204;28;19984;-66
2023/01/30 11:17:33;;;;;;;;;;;;;;;3.70;98.41;100730.66;5079597;28;20072;-67
2023/01/30 11:20:04;;;;;;;;;;;;;;;3.78;98.51;100739.47;5076416;28;19979;-67
2023/01/30 11:22:30;;;;;;;;;;;;;;;3.85;97.81;100734.25;5070453;28;19930;-66
2023/01/30 11:25:00;;;;;;;;;;;;;;;3.83;97.69;100728.09;5072748;28;19942;-67
2023/01/30 11:27:29;;;;;;;;;;;;;;;3.93;96.89;100734.28;5082336;28;19976;-67
2023/01/30 11:30:02;;;;;;;;;;;;;;;3.95;96.46;100732.56;5075079;28;19979;-67
2023/01/30 11:32:28;;;;;;;;;;;;;;;3.93;96.10;100724.66;5085939;28;20396;-67
2023/01/30 11:35:20;;;;;;;;;;;;;;;3.84;96.82;100710.53;5080465;28;19939;-68
2023/01/30 11:37:45;;;;;;;;;;;;;;;3.87;96.33;100713.22;5067437;28;19940;-67
2023/01/30 11:40:17;;;;;;;;;;;;;;;3.91;95.93;100725.50;5070075;28;19954;-68
2023/01/30 11:42:57;;;;;;;;;;;;;;;3.98;95.54;100724.66;5069009;28;19933;-68
2023/01/30 11:45:25;;;;;;;;;;;;;;;4.01;96.05;100724.69;5069567;28;20388;-67
2023/01/30 11:47:55;;;;;;;;;;;;;;;4.01;95.48;100727.31;5087001;28;19946;-67
2023/01/30 11:50:22;;;;;;;;;;;;;;;4.07;95.03;100713.31;5090078;28;19936;-68
2023/01/30 11:52:48;;;;;;;;;;;;;;;4.11;95.42;100718.59;5090377;28;19932;-68
2023/01/30 11:55:15;;;;;;;;;;;;;;;4.11;94.67;100717.69;5079337;28;19953;-68
2023/01/30 11:57:46;;;;;;;;;;;;;;;4.12;94.68;100717.69;5090224;28;20021;-68
2023/01/30 12:00:37;;;;;;;;;;;;;;;4.23;94.77;100734.44;5074699;28;20352;-68
2023/01/30 12:03:04;;;;;;;;;;;;;;;4.16;94.48;100727.38;5064847;28;19934;-68
2023/01/30 12:05:33;;;;;;;;;;;;;;;4.08;94.47;100729.13;5070466;28;20321;-68
2023/01/30 12:08:17;;;;;;;;;;;;;;;4.13;94.80;100737.91;5089385;28;19936;-68
2023/01/30 12:10:43;;;;;;;;;;;;;;;4.10;94.56;100740.53;5088464;28;19932;-68
2023/01/30 12:13:32;;;;;;;;;;;;;;;4.12;94.58;100728.22;5082761;28;19950;-68
2023/01/30 12:16:17;;;;;;;;;;;;;;;4.09;94.56;100728.22;5042744;28;19934;-68
2023/01/30 12:19:00;;;;;;;;;;;;;;;3.99;95.44;100721.16;5019888;28;20280;-68
2023/01/30 12:21:43;;;;;;;;;;;;;;;4.05;95.68;100726.47;5072072;28;19979;-68
2023/01/30 12:24:11;;;;;;;;;;;;;;;4.06;96.57;100725.59;5070529;28;19946;-67
2023/01/30 12:26:41;;;;;;;;;;;;;;;4.02;97.17;100715.91;5069608;28;19933;-67
2023/01/30 12:29:25;;;;;;;;;;;;;;;3.98;97.46;100716.78;5071549;28;19939;-67
2023/01/30 12:32:07;;;;;;;;;;;;;;;3.93;97.45;100710.59;5069118;28;19938;-66
2023/01/30 12:34:32;;;;;;;;;;;;;;;3.81;98.52;100707.91;5075759;28;20439;-67
2023/01/30 12:37:16;;;;;;;;;;;;;;;3.79;99.52;100705.25;5088214;28;20026;-67
2023/01/30 12:39:56;;;;;;;;;;;;;;;3.77;100.00;100708.78;5094230;28;20035;-67
2023/01/30 12:42:25;;;;;;;;;;;;;;;3.79;100.00;100713.16;5074845;28;19942;-67
2023/01/30 12:44:57;;;;;;;;;;;;;;;3.78;100.00;100715.78;5080404;28;20000;-69
2023/01/30 12:47:30;;;;;;;;;;;;;;;3.76;100.00;100714.88;5090080;28;19941;-68
2023/01/30 12:49:58;;;;;;;;;;;;;;;3.79;100.00;100715.78;5094398;28;19959;-68
2023/01/30 12:52:33;;;;;;;;;;;;;;;3.75;100.00;100707.88;5094066;28;19974;-68
2023/01/30 12:54:58;;;;;;;;;;;;;;;3.85;100.00;100704.44;5079941;28;19936;-68